sensor_id;sensor_type;location;lat;lon;timestamp;P1;durP1;ratioP1;P2;durP2;ratioP2
71941;SDS011;59997;53.300;-6.260;2023-05-07T00:00:18;9.20;;;1.90;;
71941;SDS011;59997;53.300;-6.260;2023-05-07T00:02:44;10.13;;;2.10;;
71941;SDS011;59997;53.300;-6.260;2023-05-07T00:05:10;11.02;;;2.10;;
71941;SDS011;59997;53.300;-6.260;2023-05-07T00:07:36;9.10;;;2.45;;
71941;SDS011;59997;53.300;-6.260;2023-05-07T00:10:02;8.50;;;2.03;;
71941;SDS011;59997;53.300;-6.260;2023-05-07T00:12:28;8.27;;;2.10;;
71941;SDS011;59997;53.300;-6.260;2023-05-07T00:14:56;9.05;;;2.03;;
71941;SDS011;59997;53.300;-6.260;2023-05-07T00:17:22;12.65;;;2.50;;
71941;SDS011;59997;53.300;-6.260;2023-05-07T00:19:48;11.03;;;2.30;;
71941;SDS011;59997;53.300;-6.260;2023-05-07T00:22:13;12.77;;;2.10;;
71941;SDS011;59997;53.300;-6.260;2023-05-07T00:24:39;8.93;;;1.90;;
71941;SDS011;59997;53.300;-6.260;2023-05-07T00:27:04;8.00;;;1.83;;
71941;SDS011;59997;53.300;-6.260;2023-05-07T00:29:30;7.40;;;1.98;;
71941;SDS011;59997;53.300;-6.260;2023-05-07T00:31:56;7.60;;;2.00;;
71941;SDS011;59997;53.300;-6.260;2023-05-07T00:34:21;9.13;;;1.92;;
71941;SDS011;59997;53.300;-6.260;2023-05-07T00:36:47;10.10;;;2.10;;
71941;SDS011;59997;53.300;-6.260;2023-05-07T00:39:13;10.88;;;3.22;;
71941;SDS011;59997;53.300;-6.260;2023-05-07T00:41:38;10.80;;;2.13;;
71941;SDS011;59997;53.300;-6.260;2023-05-07T00:44:04;12.17;;;2.20;;
71941;SDS011;59997;53.300;-6.260;2023-05-07T00:46:29;9.88;;;1.95;;
71941;SDS011;59997;53.300;-6.260;2023-05-07T00:48:55;8.23;;;1.90;;
71941;SDS011;59997;53.300;-6.260;2023-05-07T00:51:23;9.13;;;2.73;;
71941;SDS011;59997;53.300;-6.260;2023-05-07T00:53:50;12.05;;;2.33;;
71941;SDS011;59997;53.300;-6.260;2023-05-07T00:56:16;8.85;;;2.60;;
71941;SDS011;59997;53.300;-6.260;2023-05-07T00:58:42;12.05;;;1.67;;
71941;SDS011;59997;53.300;-6.260;2023-05-07T01:01:08;9.23;;;1.80;;
71941;SDS011;59997;53.300;-6.260;2023-05-07T01:03:33;11.18;;;1.95;;
71941;SDS011;59997;53.300;-6.260;2023-05-07T01:05:59;10.17;;;2.00;;
71941;SDS011;59997;53.300;-6.260;2023-05-07T01:08:26;7.88;;;1.50;;
71941;SDS011;59997;53.300;-6.260;2023-05-07T01:10:54;7.07;;;1.60;;
71941;SDS011;59997;53.300;-6.260;2023-05-07T01:13:22;8.00;;;1.67;;
71941;SDS011;59997;53.300;-6.260;2023-05-07T01:15:48;9.57;;;1.80;;
71941;SDS011;59997;53.300;-6.260;2023-05-07T01:18:14;8.73;;;1.40;;
71941;SDS011;59997;53.300;-6.260;2023-05-07T01:20:41;10.52;;;1.75;;
71941;SDS011;59997;53.300;-6.260;2023-05-07T01:23:07;11.13;;;1.80;;
71941;SDS011;59997;53.300;-6.260;2023-05-07T01:25:33;7.82;;;1.75;;
71941;SDS011;59997;53.300;-6.260;2023-05-07T01:27:59;7.40;;;2.13;;
71941;SDS011;59997;53.300;-6.260;2023-05-07T01:30:26;6.43;;;1.30;;
71941;SDS011;59997;53.300;-6.260;2023-05-07T01:33:06;7.82;;;1.20;;
71941;SDS011;59997;53.300;-6.260;2023-05-07T01:35:35;6.68;;;1.45;;
71941;SDS011;59997;53.300;-6.260;2023-05-07T01:38:05;8.30;;;1.30;;
71941;SDS011;59997;53.300;-6.260;2023-05-07T01:40:31;6.25;;;1.35;;
71941;SDS011;59997;53.300;-6.260;2023-05-07T01:42:59;6.80;;;1.47;;
71941;SDS011;59997;53.300;-6.260;2023-05-07T01:45:25;7.40;;;1.52;;
71941;SDS011;59997;53.300;-6.260;2023-05-07T01:47:51;9.43;;;1.63;;
71941;SDS011;59997;53.300;-6.260;2023-05-07T01:50:18;9.27;;;1.53;;
71941;SDS011;59997;53.300;-6.260;2023-05-07T01:52:45;8.05;;;1.00;;
71941;SDS011;59997;53.300;-6.260;2023-05-07T01:55:12;6.30;;;1.33;;
71941;SDS011;59997;53.300;-6.260;2023-05-07T01:57:37;7.43;;;1.30;;
71941;SDS011;59997;53.300;-6.260;2023-05-07T02:00:03;5.05;;;1.00;;
71941;SDS011;59997;53.300;-6.260;2023-05-07T02:02:30;7.18;;;1.40;;
71941;SDS011;59997;53.300;-6.260;2023-05-07T02:04:56;7.30;;;1.40;;
71941;SDS011;59997;53.300;-6.260;2023-05-07T02:07:21;6.20;;;1.30;;
71941;SDS011;59997;53.300;-6.260;2023-05-07T02:09:47;7.37;;;1.30;;
71941;SDS011;59997;53.300;-6.260;2023-05-07T02:12:12;8.50;;;1.50;;
71941;SDS011;59997;53.300;-6.260;2023-05-07T02:14:38;8.27;;;1.75;;
71941;SDS011;59997;53.300;-6.260;2023-05-07T02:17:03;6.60;;;1.53;;
71941;SDS011;59997;53.300;-6.260;2023-05-07T02:19:29;6.93;;;1.50;;
71941;SDS011;59997;53.300;-6.260;2023-05-07T02:21:54;8.52;;;1.02;;
71941;SDS011;59997;53.300;-6.260;2023-05-07T02:24:20;7.07;;;1.30;;
71941;SDS011;59997;53.300;-6.260;2023-05-07T02:26:46;7.23;;;1.37;;
71941;SDS011;59997;53.300;-6.260;2023-05-07T02:29:11;6.20;;;1.25;;
71941;SDS011;59997;53.300;-6.260;2023-05-07T02:31:37;7.07;;;1.43;;
71941;SDS011;59997;53.300;-6.260;2023-05-07T02:34:02;5.50;;;1.27;;
71941;SDS011;59997;53.300;-6.260;2023-05-07T02:36:28;7.35;;;1.27;;
71941;SDS011;59997;53.300;-6.260;2023-05-07T02:38:54;6.40;;;1.02;;
71941;SDS011;59997;53.300;-6.260;2023-05-07T02:41:19;6.27;;;1.30;;
71941;SDS011;59997;53.300;-6.260;2023-05-07T02:43:45;7.50;;;1.20;;
71941;SDS011;59997;53.300;-6.260;2023-05-07T02:46:11;6.57;;;1.40;;
71941;SDS011;59997;53.300;-6.260;2023-05-07T02:48:36;5.27;;;1.10;;
71941;SDS011;59997;53.300;-6.260;2023-05-07T02:51:02;6.37;;;1.10;;
71941;SDS011;59997;53.300;-6.260;2023-05-07T02:53:28;4.53;;;1.13;;
71941;SDS011;59997;53.300;-6.260;2023-05-07T02:55:57;7.57;;;1.08;;
71941;SDS011;59997;53.300;-6.260;2023-05-07T02:58:24;6.57;;;1.25;;
71941;SDS011;59997;53.300;-6.260;2023-05-07T03:00:50;5.93;;;1.05;;
71941;SDS011;59997;53.300;-6.260;2023-05-07T03:03:16;4.87;;;1.23;;
71941;SDS011;59997;53.300;-6.260;2023-05-07T03:05:42;9.63;;;1.58;;
71941;SDS011;59997;53.300;-6.260;2023-05-07T03:08:08;5.27;;;1.33;;
71941;SDS011;59997;53.300;-6.260;2023-05-07T03:10:35;7.80;;;1.30;;
71941;SDS011;59997;53.300;-6.260;2023-05-07T03:13:00;7.38;;;1.45;;
71941;SDS011;59997;53.300;-6.260;2023-05-07T03:15:26;6.33;;;1.20;;
71941;SDS011;59997;53.300;-6.260;2023-05-07T03:17:51;7.00;;;1.20;;
71941;SDS011;59997;53.300;-6.260;2023-05-07T03:20:17;6.80;;;1.10;;
71941;SDS011;59997;53.300;-6.260;2023-05-07T03:22:42;6.73;;;1.10;;
71941;SDS011;59997;53.300;-6.260;2023-05-07T03:25:08;7.53;;;1.20;;
71941;SDS011;59997;53.300;-6.260;2023-05-07T03:27:34;7.30;;;1.42;;
71941;SDS011;59997;53.300;-6.260;2023-05-07T03:29:59;4.73;;;1.03;;
71941;SDS011;59997;53.300;-6.260;2023-05-07T03:32:25;6.00;;;1.05;;
71941;SDS011;59997;53.300;-6.260;2023-05-07T03:34:51;6.63;;;1.35;;
71941;SDS011;59997;53.300;-6.260;2023-05-07T03:37:17;6.77;;;0.80;;
71941;SDS011;59997;53.300;-6.260;2023-05-07T03:39:43;7.40;;;1.40;;
71941;SDS011;59997;53.300;-6.260;2023-05-07T03:42:09;7.57;;;1.23;;
71941;SDS011;59997;53.300;-6.260;2023-05-07T03:44:34;6.97;;;1.08;;
71941;SDS011;59997;53.300;-6.260;2023-05-07T03:47:01;6.60;;;1.20;;
71941;SDS011;59997;53.300;-6.260;2023-05-07T03:49:27;6.00;;;1.10;;
71941;SDS011;59997;53.300;-6.260;2023-05-07T03:51:52;6.33;;;1.27;;
71941;SDS011;59997;53.300;-6.260;2023-05-07T03:54:18;6.43;;;1.00;;
71941;SDS011;59997;53.300;-6.260;2023-05-07T03:56:43;6.23;;;1.40;;
71941;SDS011;59997;53.300;-6.260;2023-05-07T03:59:08;7.17;;;1.23;;
71941;SDS011;59997;53.300;-6.260;2023-05-07T04:01:34;6.47;;;0.90;;
71941;SDS011;59997;53.300;-6.260;2023-05-07T04:03:59;5.97;;;1.20;;
71941;SDS011;59997;53.300;-6.260;2023-05-07T04:06:25;6.70;;;1.07;;
71941;SDS011;59997;53.300;-6.260;2023-05-07T04:08:51;8.60;;;1.30;;
71941;SDS011;59997;53.300;-6.260;2023-05-07T04:11:16;5.72;;;1.10;;
71941;SDS011;59997;53.300;-6.260;2023-05-07T04:13:42;5.07;;;1.10;;
71941;SDS011;59997;53.300;-6.260;2023-05-07T04:16:07;6.33;;;1.30;;
71941;SDS011;59997;53.300;-6.260;2023-05-07T04:18:33;7.28;;;1.38;;
71941;SDS011;59997;53.300;-6.260;2023-05-07T04:20:58;5.57;;;0.90;;
71941;SDS011;59997;53.300;-6.260;2023-05-07T04:23:24;6.67;;;1.20;;
71941;SDS011;59997;53.300;-6.260;2023-05-07T04:25:50;6.83;;;1.10;;
71941;SDS011;59997;53.300;-6.260;2023-05-07T04:28:15;4.70;;;0.80;;
71941;SDS011;59997;53.300;-6.260;2023-05-07T04:30:41;6.15;;;1.00;;
71941;SDS011;59997;53.300;-6.260;2023-05-07T04:33:06;4.50;;;1.00;;
71941;SDS011;59997;53.300;-6.260;2023-05-07T04:35:32;6.18;;;0.90;;
71941;SDS011;59997;53.300;-6.260;2023-05-07T04:37:58;5.63;;;0.70;;
71941;SDS011;59997;53.300;-6.260;2023-05-07T04:40:23;5.05;;;0.60;;
71941;SDS011;59997;53.300;-6.260;2023-05-07T04:42:49;6.68;;;0.70;;
71941;SDS011;59997;53.300;-6.260;2023-05-07T04:45:15;6.83;;;0.90;;
71941;SDS011;59997;53.300;-6.260;2023-05-07T04:47:40;4.88;;;0.63;;
71941;SDS011;59997;53.300;-6.260;2023-05-07T04:50:06;4.55;;;0.80;;
71941;SDS011;59997;53.300;-6.260;2023-05-07T04:52:33;6.33;;;0.80;;
71941;SDS011;59997;53.300;-6.260;2023-05-07T04:54:59;6.15;;;0.70;;
71941;SDS011;59997;53.300;-6.260;2023-05-07T04:57:25;5.57;;;1.00;;
71941;SDS011;59997;53.300;-6.260;2023-05-07T04:59:51;5.80;;;0.90;;
71941;SDS011;59997;53.300;-6.260;2023-05-07T05:02:17;4.70;;;0.68;;
71941;SDS011;59997;53.300;-6.260;2023-05-07T05:04:42;4.90;;;0.80;;
71941;SDS011;59997;53.300;-6.260;2023-05-07T05:07:08;5.40;;;0.80;;
71941;SDS011;59997;53.300;-6.260;2023-05-07T05:09:33;5.70;;;0.80;;
71941;SDS011;59997;53.300;-6.260;2023-05-07T05:11:59;4.80;;;0.90;;
71941;SDS011;59997;53.300;-6.260;2023-05-07T05:14:24;5.50;;;0.90;;
71941;SDS011;59997;53.300;-6.260;2023-05-07T05:16:50;5.23;;;0.87;;
71941;SDS011;59997;53.300;-6.260;2023-05-07T05:19:16;4.32;;;0.90;;
71941;SDS011;59997;53.300;-6.260;2023-05-07T05:21:42;5.73;;;0.67;;
71941;SDS011;59997;53.300;-6.260;2023-05-07T05:24:07;6.13;;;0.80;;
71941;SDS011;59997;53.300;-6.260;2023-05-07T05:26:33;4.97;;;0.83;;
71941;SDS011;59997;53.300;-6.260;2023-05-07T05:28:59;3.90;;;0.80;;
71941;SDS011;59997;53.300;-6.260;2023-05-07T05:31:25;4.57;;;0.90;;
71941;SDS011;59997;53.300;-6.260;2023-05-07T05:33:50;5.32;;;0.80;;
71941;SDS011;59997;53.300;-6.260;2023-05-07T05:36:16;4.40;;;0.88;;
71941;SDS011;59997;53.300;-6.260;2023-05-07T05:38:42;3.90;;;0.70;;
71941;SDS011;59997;53.300;-6.260;2023-05-07T05:41:09;7.53;;;1.10;;
71941;SDS011;59997;53.300;-6.260;2023-05-07T05:43:35;7.60;;;0.98;;
71941;SDS011;59997;53.300;-6.260;2023-05-07T05:46:00;5.07;;;0.87;;
71941;SDS011;59997;53.300;-6.260;2023-05-07T05:48:26;7.73;;;1.00;;
71941;SDS011;59997;53.300;-6.260;2023-05-07T05:50:51;5.77;;;0.90;;
71941;SDS011;59997;53.300;-6.260;2023-05-07T05:53:17;5.22;;;0.90;;
71941;SDS011;59997;53.300;-6.260;2023-05-07T05:55:42;4.83;;;1.00;;
71941;SDS011;59997;53.300;-6.260;2023-05-07T05:58:08;4.68;;;0.85;;
71941;SDS011;59997;53.300;-6.260;2023-05-07T06:00:34;6.67;;;1.10;;
71941;SDS011;59997;53.300;-6.260;2023-05-07T06:02:59;5.90;;;1.23;;
71941;SDS011;59997;53.300;-6.260;2023-05-07T06:05:25;6.93;;;1.60;;
71941;SDS011;59997;53.300;-6.260;2023-05-07T06:07:51;6.20;;;1.38;;
71941;SDS011;59997;53.300;-6.260;2023-05-07T06:10:17;5.63;;;1.07;;
71941;SDS011;59997;53.300;-6.260;2023-05-07T06:12:42;5.50;;;1.20;;
71941;SDS011;59997;53.300;-6.260;2023-05-07T06:15:08;5.20;;;1.00;;
71941;SDS011;59997;53.300;-6.260;2023-05-07T06:17:34;5.63;;;0.90;;
71941;SDS011;59997;53.300;-6.260;2023-05-07T06:19:59;8.83;;;1.20;;
71941;SDS011;59997;53.300;-6.260;2023-05-07T06:22:25;6.30;;;0.90;;
71941;SDS011;59997;53.300;-6.260;2023-05-07T06:24:50;7.97;;;1.35;;
71941;SDS011;59997;53.300;-6.260;2023-05-07T06:27:16;5.30;;;1.40;;
71941;SDS011;59997;53.300;-6.260;2023-05-07T06:29:42;5.35;;;1.13;;
71941;SDS011;59997;53.300;-6.260;2023-05-07T06:32:10;4.30;;;1.30;;
71941;SDS011;59997;53.300;-6.260;2023-05-07T06:34:37;6.43;;;1.30;;
71941;SDS011;59997;53.300;-6.260;2023-05-07T06:37:03;4.47;;;1.00;;
71941;SDS011;59997;53.300;-6.260;2023-05-07T06:39:29;4.60;;;0.90;;
71941;SDS011;59997;53.300;-6.260;2023-05-07T06:41:54;4.60;;;0.80;;
71941;SDS011;59997;53.300;-6.260;2023-05-07T06:44:20;5.32;;;0.90;;
71941;SDS011;59997;53.300;-6.260;2023-05-07T06:46:46;7.10;;;0.97;;
71941;SDS011;59997;53.300;-6.260;2023-05-07T06:49:14;5.80;;;1.30;;
71941;SDS011;59997;53.300;-6.260;2023-05-07T06:51:40;5.30;;;1.10;;
71941;SDS011;59997;53.300;-6.260;2023-05-07T06:54:06;6.35;;;1.00;;
71941;SDS011;59997;53.300;-6.260;2023-05-07T06:56:32;6.97;;;1.10;;
71941;SDS011;59997;53.300;-6.260;2023-05-07T06:58:59;4.70;;;0.90;;
71941;SDS011;59997;53.300;-6.260;2023-05-07T07:01:25;5.00;;;1.35;;
71941;SDS011;59997;53.300;-6.260;2023-05-07T07:03:51;4.53;;;1.25;;
71941;SDS011;59997;53.300;-6.260;2023-05-07T07:06:16;4.90;;;1.00;;
71941;SDS011;59997;53.300;-6.260;2023-05-07T07:08:42;4.65;;;0.80;;
71941;SDS011;59997;53.300;-6.260;2023-05-07T07:11:08;4.73;;;0.90;;
71941;SDS011;59997;53.300;-6.260;2023-05-07T07:13:35;5.15;;;0.93;;
71941;SDS011;59997;53.300;-6.260;2023-05-07T07:16:00;4.53;;;0.80;;
71941;SDS011;59997;53.300;-6.260;2023-05-07T07:18:26;6.70;;;1.10;;
71941;SDS011;59997;53.300;-6.260;2023-05-07T07:20:52;5.30;;;1.00;;
71941;SDS011;59997;53.300;-6.260;2023-05-07T07:23:17;4.10;;;0.80;;
71941;SDS011;59997;53.300;-6.260;2023-05-07T07:25:43;5.00;;;1.10;;
71941;SDS011;59997;53.300;-6.260;2023-05-07T07:28:08;6.40;;;0.83;;
71941;SDS011;59997;53.300;-6.260;2023-05-07T07:30:35;6.23;;;0.90;;
71941;SDS011;59997;53.300;-6.260;2023-05-07T07:33:01;5.03;;;1.13;;
71941;SDS011;59997;53.300;-6.260;2023-05-07T07:35:31;7.35;;;1.33;;
71941;SDS011;59997;53.300;-6.260;2023-05-07T07:37:57;6.38;;;0.95;;
71941;SDS011;59997;53.300;-6.260;2023-05-07T07:40:23;5.80;;;0.80;;
71941;SDS011;59997;53.300;-6.260;2023-05-07T07:42:49;5.07;;;0.90;;
71941;SDS011;59997;53.300;-6.260;2023-05-07T07:45:15;5.55;;;1.23;;
71941;SDS011;59997;53.300;-6.260;2023-05-07T07:47:41;4.63;;;0.87;;
71941;SDS011;59997;53.300;-6.260;2023-05-07T07:50:06;5.17;;;0.70;;
71941;SDS011;59997;53.300;-6.260;2023-05-07T07:52:32;4.40;;;0.90;;
71941;SDS011;59997;53.300;-6.260;2023-05-07T07:54:58;5.68;;;0.93;;
71941;SDS011;59997;53.300;-6.260;2023-05-07T07:57:24;4.17;;;0.70;;
71941;SDS011;59997;53.300;-6.260;2023-05-07T07:59:50;3.72;;;0.80;;
71941;SDS011;59997;53.300;-6.260;2023-05-07T08:02:16;4.60;;;0.90;;
71941;SDS011;59997;53.300;-6.260;2023-05-07T08:04:42;3.80;;;0.98;;
71941;SDS011;59997;53.300;-6.260;2023-05-07T08:07:08;4.50;;;0.90;;
71941;SDS011;59997;53.300;-6.260;2023-05-07T08:09:39;4.50;;;1.10;;
71941;SDS011;59997;53.300;-6.260;2023-05-07T08:12:05;5.13;;;0.90;;
71941;SDS011;59997;53.300;-6.260;2023-05-07T08:14:32;7.40;;;1.00;;
71941;SDS011;59997;53.300;-6.260;2023-05-07T08:16:57;6.47;;;0.80;;
71941;SDS011;59997;53.300;-6.260;2023-05-07T08:19:23;4.20;;;1.00;;
71941;SDS011;59997;53.300;-6.260;2023-05-07T08:21:48;5.55;;;0.90;;
71941;SDS011;59997;53.300;-6.260;2023-05-07T08:24:14;4.30;;;1.00;;
71941;SDS011;59997;53.300;-6.260;2023-05-07T08:26:40;5.60;;;1.07;;
71941;SDS011;59997;53.300;-6.260;2023-05-07T08:29:06;4.78;;;0.88;;
71941;SDS011;59997;53.300;-6.260;2023-05-07T08:31:32;6.55;;;1.20;;
71941;SDS011;59997;53.300;-6.260;2023-05-07T08:33:57;7.93;;;1.47;;
71941;SDS011;59997;53.300;-6.260;2023-05-07T08:36:24;7.22;;;1.30;;
71941;SDS011;59997;53.300;-6.260;2023-05-07T08:38:50;6.53;;;1.63;;
71941;SDS011;59997;53.300;-6.260;2023-05-07T08:41:16;5.80;;;2.13;;
71941;SDS011;59997;53.300;-6.260;2023-05-07T08:43:42;5.97;;;2.00;;
71941;SDS011;59997;53.300;-6.260;2023-05-07T08:46:13;6.68;;;2.22;;
71941;SDS011;59997;53.300;-6.260;2023-05-07T08:48:43;6.30;;;2.22;;
71941;SDS011;59997;53.300;-6.260;2023-05-07T08:51:12;5.97;;;2.00;;
71941;SDS011;59997;53.300;-6.260;2023-05-07T08:53:38;6.47;;;1.73;;
71941;SDS011;59997;53.300;-6.260;2023-05-07T08:56:06;7.18;;;2.05;;
71941;SDS011;59997;53.300;-6.260;2023-05-07T08:58:33;4.72;;;1.63;;
71941;SDS011;59997;53.300;-6.260;2023-05-07T09:01:00;7.13;;;2.43;;
71941;SDS011;59997;53.300;-6.260;2023-05-07T09:03:28;5.90;;;2.25;;
71941;SDS011;59997;53.300;-6.260;2023-05-07T09:05:55;7.78;;;2.35;;
71941;SDS011;59997;53.300;-6.260;2023-05-07T09:08:23;6.53;;;2.43;;
71941;SDS011;59997;53.300;-6.260;2023-05-07T09:10:51;6.13;;;2.28;;
71941;SDS011;59997;53.300;-6.260;2023-05-07T09:13:17;10.07;;;1.92;;
71941;SDS011;59997;53.300;-6.260;2023-05-07T09:15:43;5.17;;;1.87;;
71941;SDS011;59997;53.300;-6.260;2023-05-07T09:18:09;7.63;;;1.90;;
71941;SDS011;59997;53.300;-6.260;2023-05-07T09:20:36;5.83;;;1.67;;
71941;SDS011;59997;53.300;-6.260;2023-05-07T09:23:02;6.97;;;1.98;;
71941;SDS011;59997;53.300;-6.260;2023-05-07T09:25:31;7.05;;;1.60;;
71941;SDS011;59997;53.300;-6.260;2023-05-07T09:27:58;6.95;;;1.50;;
71941;SDS011;59997;53.300;-6.260;2023-05-07T09:30:31;7.30;;;1.60;;
71941;SDS011;59997;53.300;-6.260;2023-05-07T09:32:58;6.17;;;1.43;;
71941;SDS011;59997;53.300;-6.260;2023-05-07T09:35:25;5.55;;;2.15;;
71941;SDS011;59997;53.300;-6.260;2023-05-07T09:37:55;6.32;;;1.90;;
71941;SDS011;59997;53.300;-6.260;2023-05-07T09:40:23;6.35;;;2.22;;
71941;SDS011;59997;53.300;-6.260;2023-05-07T09:42:50;7.47;;;2.28;;
71941;SDS011;59997;53.300;-6.260;2023-05-07T09:45:16;5.17;;;1.70;;
71941;SDS011;59997;53.300;-6.260;2023-05-07T09:47:46;7.13;;;1.40;;
71941;SDS011;59997;53.300;-6.260;2023-05-07T09:50:15;6.68;;;2.08;;
71941;SDS011;59997;53.300;-6.260;2023-05-07T09:52:42;5.03;;;1.87;;
71941;SDS011;59997;53.300;-6.260;2023-05-07T09:55:09;6.80;;;2.10;;
71941;SDS011;59997;53.300;-6.260;2023-05-07T09:57:37;6.15;;;2.45;;
71941;SDS011;59997;53.300;-6.260;2023-05-07T10:00:05;5.10;;;1.90;;
71941;SDS011;59997;53.300;-6.260;2023-05-07T10:02:32;5.15;;;1.95;;
71941;SDS011;59997;53.300;-6.260;2023-05-07T10:05:01;7.47;;;2.47;;
71941;SDS011;59997;53.300;-6.260;2023-05-07T10:07:27;5.45;;;1.42;;
71941;SDS011;59997;53.300;-6.260;2023-05-07T10:09:53;4.93;;;1.30;;
71941;SDS011;59997;53.300;-6.260;2023-05-07T10:12:19;5.75;;;1.42;;
71941;SDS011;59997;53.300;-6.260;2023-05-07T10:14:46;5.97;;;1.50;;
71941;SDS011;59997;53.300;-6.260;2023-05-07T10:17:13;6.63;;;1.70;;
71941;SDS011;59997;53.300;-6.260;2023-05-07T10:19:40;6.07;;;1.90;;
71941;SDS011;59997;53.300;-6.260;2023-05-07T10:22:06;5.55;;;1.92;;
71941;SDS011;59997;53.300;-6.260;2023-05-07T10:24:33;4.72;;;1.90;;
71941;SDS011;59997;53.300;-6.260;2023-05-07T10:27:00;5.50;;;1.90;;
71941;SDS011;59997;53.300;-6.260;2023-05-07T10:29:45;7.20;;;2.13;;
71941;SDS011;59997;53.300;-6.260;2023-05-07T10:34:50;4.80;;;1.70;;
71941;SDS011;59997;53.300;-6.260;2023-05-07T10:37:20;5.93;;;2.13;;
71941;SDS011;59997;53.300;-6.260;2023-05-07T10:39:46;6.50;;;1.60;;
71941;SDS011;59997;53.300;-6.260;2023-05-07T10:42:12;4.80;;;1.60;;
71941;SDS011;59997;53.300;-6.260;2023-05-07T10:44:38;7.47;;;2.33;;
71941;SDS011;59997;53.300;-6.260;2023-05-07T10:47:05;5.60;;;1.77;;
71941;SDS011;59997;53.300;-6.260;2023-05-07T10:54:39;5.70;;;1.58;;
71941;SDS011;59997;53.300;-6.260;2023-05-07T10:59:55;5.65;;;1.25;;
71941;SDS011;59997;53.300;-6.260;2023-05-07T11:02:21;7.67;;;1.30;;
71941;SDS011;59997;53.300;-6.260;2023-05-07T11:05:18;6.82;;;1.50;;
71941;SDS011;59997;53.300;-6.260;2023-05-07T11:07:53;5.40;;;1.40;;
71941;SDS011;59997;53.300;-6.260;2023-05-07T11:13:17;5.97;;;2.22;;
71941;SDS011;59997;53.300;-6.260;2023-05-07T11:15:47;5.35;;;1.40;;
71941;SDS011;59997;53.300;-6.260;2023-05-07T11:18:16;5.47;;;1.30;;
71941;SDS011;59997;53.300;-6.260;2023-05-07T11:20:56;5.57;;;1.70;;
71941;SDS011;59997;53.300;-6.260;2023-05-07T11:28:29;4.75;;;1.25;;
71941;SDS011;59997;53.300;-6.260;2023-05-07T11:30:56;6.75;;;1.85;;
71941;SDS011;59997;53.300;-6.260;2023-05-07T11:33:22;8.13;;;1.63;;
71941;SDS011;59997;53.300;-6.260;2023-05-07T11:35:50;5.40;;;1.60;;
71941;SDS011;59997;53.300;-6.260;2023-05-07T11:38:17;5.32;;;1.40;;
71941;SDS011;59997;53.300;-6.260;2023-05-07T11:40:54;5.32;;;1.58;;
71941;SDS011;59997;53.300;-6.260;2023-05-07T11:43:21;7.57;;;1.80;;
71941;SDS011;59997;53.300;-6.260;2023-05-07T11:45:46;4.47;;;1.30;;
71941;SDS011;59997;53.300;-6.260;2023-05-07T11:48:13;8.00;;;2.05;;
71941;SDS011;59997;53.300;-6.260;2023-05-07T11:50:59;5.78;;;1.70;;
71941;SDS011;59997;53.300;-6.260;2023-05-07T11:53:26;5.53;;;1.87;;
71941;SDS011;59997;53.300;-6.260;2023-05-07T11:55:56;6.53;;;1.48;;
71941;SDS011;59997;53.300;-6.260;2023-05-07T11:58:22;5.93;;;1.40;;
71941;SDS011;59997;53.300;-6.260;2023-05-07T12:00:49;7.10;;;1.70;;
71941;SDS011;59997;53.300;-6.260;2023-05-07T12:03:15;5.85;;;1.60;;
71941;SDS011;59997;53.300;-6.260;2023-05-07T12:05:41;5.60;;;1.77;;
71941;SDS011;59997;53.300;-6.260;2023-05-07T12:08:07;5.27;;;1.63;;
71941;SDS011;59997;53.300;-6.260;2023-05-07T12:10:33;6.75;;;2.05;;
71941;SDS011;59997;53.300;-6.260;2023-05-07T12:12:58;5.67;;;1.73;;
71941;SDS011;59997;53.300;-6.260;2023-05-07T12:15:23;6.40;;;1.63;;
71941;SDS011;59997;53.300;-6.260;2023-05-07T12:17:49;4.90;;;1.43;;
71941;SDS011;59997;53.300;-6.260;2023-05-07T12:20:15;5.47;;;1.40;;
71941;SDS011;59997;53.300;-6.260;2023-05-07T12:22:41;6.45;;;1.40;;
71941;SDS011;59997;53.300;-6.260;2023-05-07T12:25:08;6.18;;;1.27;;
71941;SDS011;59997;53.300;-6.260;2023-05-07T12:27:36;4.47;;;1.20;;
71941;SDS011;59997;53.300;-6.260;2023-05-07T12:30:03;5.85;;;1.58;;
71941;SDS011;59997;53.300;-6.260;2023-05-07T12:32:28;6.10;;;1.52;;
71941;SDS011;59997;53.300;-6.260;2023-05-07T12:34:54;5.00;;;1.63;;
71941;SDS011;59997;53.300;-6.260;2023-05-07T12:37:25;4.70;;;1.10;;
71941;SDS011;59997;53.300;-6.260;2023-05-07T12:40:06;4.80;;;0.90;;
71941;SDS011;59997;53.300;-6.260;2023-05-07T12:42:37;4.85;;;1.00;;
71941;SDS011;59997;53.300;-6.260;2023-05-07T12:45:10;4.60;;;1.00;;
71941;SDS011;59997;53.300;-6.260;2023-05-07T12:47:43;4.65;;;1.20;;
71941;SDS011;59997;53.300;-6.260;2023-05-07T12:50:15;4.80;;;1.25;;
71941;SDS011;59997;53.300;-6.260;2023-05-07T12:52:42;4.37;;;1.20;;
71941;SDS011;59997;53.300;-6.260;2023-05-07T12:55:12;6.07;;;1.48;;
71941;SDS011;59997;53.300;-6.260;2023-05-07T12:57:43;4.72;;;1.35;;
71941;SDS011;59997;53.300;-6.260;2023-05-07T13:00:12;4.68;;;1.40;;
71941;SDS011;59997;53.300;-6.260;2023-05-07T13:02:39;4.40;;;1.40;;
71941;SDS011;59997;53.300;-6.260;2023-05-07T13:05:05;5.23;;;1.20;;
71941;SDS011;59997;53.300;-6.260;2023-05-07T13:07:32;6.03;;;2.40;;
71941;SDS011;59997;53.300;-6.260;2023-05-07T13:09:57;3.77;;;0.93;;
71941;SDS011;59997;53.300;-6.260;2023-05-07T13:12:22;4.50;;;1.08;;
71941;SDS011;59997;53.300;-6.260;2023-05-07T13:14:48;5.00;;;1.33;;
71941;SDS011;59997;53.300;-6.260;2023-05-07T13:17:13;5.43;;;1.40;;
71941;SDS011;59997;53.300;-6.260;2023-05-07T13:19:39;4.50;;;1.25;;
71941;SDS011;59997;53.300;-6.260;2023-05-07T13:22:05;5.40;;;1.33;;
71941;SDS011;59997;53.300;-6.260;2023-05-07T13:24:30;5.60;;;1.30;;
71941;SDS011;59997;53.300;-6.260;2023-05-07T13:26:55;5.32;;;1.15;;
71941;SDS011;59997;53.300;-6.260;2023-05-07T13:29:21;3.83;;;0.90;;
71941;SDS011;59997;53.300;-6.260;2023-05-07T13:31:53;5.97;;;1.27;;
71941;SDS011;59997;53.300;-6.260;2023-05-07T13:34:19;4.55;;;1.13;;
71941;SDS011;59997;53.300;-6.260;2023-05-07T13:36:45;5.33;;;1.10;;
71941;SDS011;59997;53.300;-6.260;2023-05-07T13:39:10;5.33;;;1.43;;
71941;SDS011;59997;53.300;-6.260;2023-05-07T13:41:36;4.43;;;1.20;;
71941;SDS011;59997;53.300;-6.260;2023-05-07T13:44:01;5.27;;;1.10;;
71941;SDS011;59997;53.300;-6.260;2023-05-07T13:46:27;4.60;;;1.17;;
71941;SDS011;59997;53.300;-6.260;2023-05-07T13:48:52;3.95;;;0.90;;
71941;SDS011;59997;53.300;-6.260;2023-05-07T13:51:18;4.57;;;1.23;;
71941;SDS011;59997;53.300;-6.260;2023-05-07T13:53:43;5.90;;;1.40;;
71941;SDS011;59997;53.300;-6.260;2023-05-07T13:56:09;5.25;;;1.40;;
71941;SDS011;59997;53.300;-6.260;2023-05-07T13:58:34;5.03;;;1.60;;
71941;SDS011;59997;53.300;-6.260;2023-05-07T14:01:01;4.65;;;1.40;;
71941;SDS011;59997;53.300;-6.260;2023-05-07T14:03:27;5.87;;;1.40;;
71941;SDS011;59997;53.300;-6.260;2023-05-07T14:05:52;5.18;;;1.48;;
71941;SDS011;59997;53.300;-6.260;2023-05-07T14:08:18;4.70;;;1.20;;
71941;SDS011;59997;53.300;-6.260;2023-05-07T14:10:45;6.32;;;1.42;;
71941;SDS011;59997;53.300;-6.260;2023-05-07T14:13:11;5.03;;;1.47;;
71941;SDS011;59997;53.300;-6.260;2023-05-07T14:15:36;5.05;;;1.30;;
71941;SDS011;59997;53.300;-6.260;2023-05-07T14:18:02;6.20;;;1.47;;
71941;SDS011;59997;53.300;-6.260;2023-05-07T14:20:28;4.80;;;1.38;;
71941;SDS011;59997;53.300;-6.260;2023-05-07T14:22:55;5.22;;;1.60;;
71941;SDS011;59997;53.300;-6.260;2023-05-07T14:25:21;6.27;;;1.67;;
71941;SDS011;59997;53.300;-6.260;2023-05-07T14:27:46;4.25;;;1.25;;
71941;SDS011;59997;53.300;-6.260;2023-05-07T14:30:12;3.93;;;1.00;;
71941;SDS011;59997;53.300;-6.260;2023-05-07T14:32:37;5.63;;;1.50;;
71941;SDS011;59997;53.300;-6.260;2023-05-07T14:35:03;4.60;;;1.55;;
71941;SDS011;59997;53.300;-6.260;2023-05-07T14:37:29;4.63;;;1.37;;
71941;SDS011;59997;53.300;-6.260;2023-05-07T14:39:55;5.55;;;1.40;;
71941;SDS011;59997;53.300;-6.260;2023-05-07T14:42:20;4.80;;;1.17;;
71941;SDS011;59997;53.300;-6.260;2023-05-07T14:44:47;5.28;;;1.40;;
71941;SDS011;59997;53.300;-6.260;2023-05-07T14:47:13;5.38;;;1.50;;